Time;durP1;ratioP1;P1;durP2;ratioP2;P2;SDS_P1;SDS_P2;PMS_P1;PMS_P2;Temp;Humidity;BMP_temperature;BMP_pressure;BME280_temperature;BME280_humidity;BME280_pressure;Samples;Min_cycle;Max_cycle;Signal;HPM_P1;HPM_P2
2022/05/23 00:02:07;;;;;;;1.40;0.82;;;16.50;86.20;;;;;;5097749;28;20012;-68
2022/05/23 00:04:34;;;;;;;3.40;1.17;;;16.50;86.40;;;;;;5097857;28;20024;-68
2022/05/23 00:07:02;;;;;;;2.78;0.95;;;16.50;86.80;;;;;;5094794;28;20105;-69
2022/05/23 00:09:29;;;;;;;0.98;0.82;;;16.50;87.00;;;;;;5096146;28;20269;-69
2022/05/23 00:11:55;;;;;;;3.45;1.17;;;16.60;87.20;;;;;;5097425;28;20497;-69
2022/05/23 00:14:22;;;;;;;1.98;0.60;;;16.50;87.30;;;;;;5097011;28;20551;-68
2022/05/23 00:16:50;;;;;;;2.10;0.60;;;16.50;87.40;;;;;;5097303;28;20103;-64
2022/05/23 00:19:19;;;;;;;0.95;0.60;;;16.50;87.50;;;;;;5094651;28;20020;-64
2022/05/23 00:21:45;;;;;;;1.98;0.70;;;16.50;87.50;;;;;;5097870;28;20016;-65
2022/05/23 00:24:15;;;;;;;3.85;1.17;;;16.50;87.50;;;;;;5096396;28;20073;-65
2022/05/23 00:26:46;;;;;;;3.00;1.25;;;16.50;87.80;;;;;;5092800;28;20566;-65
2022/05/23 00:29:13;;;;;;;2.50;0.80;;;16.50;87.70;;;;;;5099283;28;20071;-65
2022/05/23 00:35:17;;;;;;;0.85;0.63;;;16.50;87.90;;;;;;5097817;28;20020;-67
2022/05/23 00:37:10;;;;;;;0.60;0.50;;;16.50;87.90;;;;;;5101797;28;20037;-68
2022/05/23 00:39:37;;;;;;;0.57;0.38;;;16.50;87.90;;;;;;5097407;28;20485;-68
2022/05/23 00:44:55;;;;;;;1.98;0.50;;;16.50;88.10;;;;;;5098074;28;20529;-68
2022/05/23 00:47:24;;;;;;;1.05;0.30;;;16.50;88.30;;;;;;5103604;28;20023;-69
2022/05/23 00:49:51;;;;;;;0.47;0.28;;;16.50;88.40;;;;;;5102029;28;20029;-68
2022/05/23 00:52:34;;;;;;;2.45;0.32;;;16.50;88.50;;;;;;5084677;28;20042;-68
2022/05/23 00:55:12;;;;;;;1.08;0.40;;;16.50;88.50;;;;;;5100657;28;20106;-68
2022/05/23 00:57:42;;;;;;;1.77;0.47;;;16.50;88.40;;;;;;5100343;28;20020;-68
2022/05/23 01:00:10;;;;;;;1.90;0.90;;;16.50;88.30;;;;;;5103716;28;20024;-68
2022/05/23 01:02:38;;;;;;;1.33;0.55;;;16.50;88.40;;;;;;5099872;28;20456;-68
2022/05/23 01:05:09;;;;;;;1.40;0.55;;;16.50;88.40;;;;;;5099874;28;20394;-69
2022/05/23 01:07:36;;;;;;;1.17;0.57;;;16.50;88.50;;;;;;5097220;28;20621;-68
2022/05/23 01:10:04;;;;;;;3.22;0.80;;;16.50;88.50;;;;;;5100878;28;20043;-67
2022/05/23 01:12:31;;;;;;;5.32;1.00;;;16.50;88.70;;;;;;5098078;28;20023;-69
2022/05/23 01:15:00;;;;;;;2.97;1.42;;;16.50;88.60;;;;;;5098791;28;20008;-68
2022/05/23 01:17:29;;;;;;;11.10;2.13;;;16.50;88.50;;;;;;5099368;28;20039;-66
2022/05/23 01:19:55;;;;;;;3.00;1.00;;;16.40;88.20;;;;;;5099923;28;20016;-66
2022/05/23 01:22:45;;;;;;;11.77;0.73;;;16.50;88.10;;;;;;5098968;28;20858;-67
2022/05/23 01:25:24;;;;;;;1.75;0.65;;;16.50;87.90;;;;;;5096287;28;20024;-66
2022/05/23 01:27:52;;;;;;;0.60;0.50;;;16.50;88.10;;;;;;5096453;28;20489;-65
2022/05/23 01:30:22;;;;;;;3.38;0.82;;;16.40;88.20;;;;;;5100292;28;20036;-67
2022/05/23 01:32:49;;;;;;;6.13;0.60;;;16.40;88.20;;;;;;5101917;28;20024;-68
2022/05/23 01:35:24;;;;;;;1.73;0.82;;;16.40;88.10;;;;;;5101380;28;20072;-69
2022/05/23 01:37:51;;;;;;;3.25;0.77;;;16.40;88.10;;;;;;5100567;28;20023;-69
2022/05/23 01:40:19;;;;;;;1.35;0.60;;;16.40;88.10;;;;;;5078562;28;20398;-69
2022/05/23 01:42:46;;;;;;;0.90;0.50;;;16.40;88.20;;;;;;5100739;28;20049;-65
2022/05/23 01:45:19;;;;;;;2.15;0.80;;;16.40;88.20;;;;;;5101968;28;20044;-65
2022/05/23 01:47:46;;;;;;;1.15;0.75;;;16.40;88.30;;;;;;5097859;28;20374;-66
2022/05/23 01:50:12;;;;;;;1.00;0.90;;;16.40;88.30;;;;;;5102352;28;20044;-65
2022/05/23 01:52:40;;;;;;;1.38;0.60;;;16.40;88.30;;;;;;5095400;28;20470;-65
2022/05/23 01:55:07;;;;;;;0.50;0.50;;;16.40;88.20;;;;;;5099992;28;20073;-65
2022/05/23 01:57:34;;;;;;;0.60;0.60;;;16.40;88.10;;;;;;5096687;28;20031;-65
2022/05/23 02:02:48;;;;;;;3.22;0.57;;;16.40;88.10;;;;;;5100436;28;20535;-68
2022/05/23 02:05:16;;;;;;;0.47;0.47;;;16.40;88.90;;;;;;5099280;28;20009;-67
2022/05/23 02:07:43;;;;;;;3.53;0.65;;;16.30;88.20;;;;;;5096332;28;20052;-65
2022/05/23 02:10:10;;;;;;;1.08;0.68;;;16.40;88.40;;;;;;5082470;28;20032;-65
2022/05/23 02:12:37;;;;;;;1.13;0.50;;;16.40;88.50;;;;;;5094332;28;20059;-65
2022/05/23 02:15:04;;;;;;;2.97;0.77;;;16.30;88.50;;;;;;5100124;28;20022;-65
2022/05/23 02:17:31;;;;;;;4.22;0.93;;;16.30;88.50;;;;;;5100946;28;20023;-65
2022/05/23 02:19:58;;;;;;;5.65;0.98;;;16.40;88.60;;;;;;5102256;28;20482;-66
2022/05/23 02:22:25;;;;;;;10.13;1.20;;;16.30;88.50;;;;;;5100238;28;20446;-66
2022/05/23 02:24:51;;;;;;;2.55;1.10;;;16.30;88.50;;;;;;5099787;28;20471;-66
2022/05/23 02:27:18;;;;;;;1.50;0.80;;;16.30;88.30;;;;;;5100139;28;20478;-68
2022/05/23 02:29:44;;;;;;;1.20;0.70;;;16.30;88.30;;;;;;5097402;28;20039;-66
2022/05/23 02:32:10;;;;;;;1.58;0.98;;;16.30;88.20;;;;;;5100739;28;20085;-66
2022/05/23 02:34:37;;;;;;;4.75;1.15;;;16.40;88.10;;;;;;5096134;28;20501;-68
2022/05/23 02:37:04;;;;;;;1.48;0.65;;;16.30;88.00;;;;;;5096957;28;20024;-66
2022/05/23 02:39:30;;;;;;;2.00;0.95;;;16.30;88.00;;;;;;5094497;28;20028;-65
2022/05/23 02:41:57;;;;;;;1.23;0.70;;;16.30;88.20;;;;;;5100801;28;20051;-68
2022/05/23 02:44:23;;;;;;;6.10;0.88;;;16.30;88.20;;;;;;5097158;28;20039;-66
2022/05/23 02:46:50;;;;;;;1.73;1.00;;;16.30;88.30;;;;;;5098468;28;20024;-65
2022/05/23 02:49:16;;;;;;;1.15;0.85;;;16.30;88.30;;;;;;5097385;28;20028;-65
2022/05/23 02:51:42;;;;;;;1.77;0.80;;;16.30;88.30;;;;;;5096396;28;20478;-65
2022/05/23 02:54:09;;;;;;;1.48;0.90;;;16.30;88.40;;;;;;5093736;28;20027;-65
2022/05/23 02:56:36;;;;;;;1.48;1.10;;;16.30;88.50;;;;;;5096766;28;20419;-65
2022/05/23 02:59:04;;;;;;;2.25;1.05;;;16.30;88.60;;;;;;5100080;28;20091;-67
2022/05/23 03:01:30;;;;;;;2.30;1.25;;;16.30;88.60;;;;;;5097789;28;20020;-65
2022/05/23 03:03:57;;;;;;;2.33;1.13;;;16.30;88.60;;;;;;5098031;28;20106;-66
2022/05/23 03:06:24;;;;;;;3.13;1.48;;;16.30;88.70;;;;;;5099306;28;20477;-65
2022/05/23 03:08:50;;;;;;;1.48;1.38;;;16.30;88.60;;;;;;5097588;28;20036;-65
2022/05/23 03:11:18;;;;;;;2.90;1.17;;;16.20;88.50;;;;;;5095123;28;20035;-65
2022/05/23 03:13:44;;;;;;;1.55;1.45;;;16.20;88.40;;;;;;5099348;28;20028;-65
2022/05/23 03:16:13;;;;;;;3.20;1.65;;;16.20;88.20;;;;;;5099732;28;20028;-66
2022/05/23 03:18:40;;;;;;;2.15;1.30;;;16.20;88.10;;;;;;5098818;28;20017;-65
2022/05/23 03:21:11;;;;;;;3.20;1.90;;;16.20;88.10;;;;;;5100113;28;20012;-66
2022/05/23 03:29:12;;;;;;;1.70;0.95;;;16.20;88.50;;;;;;5096896;28;20039;-65
2022/05/23 03:31:39;;;;;;;2.10;0.90;;;16.20;88.40;;;;;;5096026;28;20099;-65
2022/05/23 03:34:05;;;;;;;4.70;1.00;;;16.20;88.30;;;;;;5099523;28;20051;-66
2022/05/23 03:36:32;;;;;;;1.52;0.50;;;16.20;88.40;;;;;;5098105;28;20385;-67
2022/05/23 03:38:58;;;;;;;1.25;0.65;;;16.20;88.50;;;;;;5095337;28;20095;-66
2022/05/23 03:41:25;;;;;;;5.40;1.08;;;16.20;88.50;;;;;;5099293;28;20020;-66
2022/05/23 03:43:51;;;;;;;1.40;0.82;;;16.20;88.50;;;;;;5098111;28;20040;-66
2022/05/23 03:46:18;;;;;;;1.95;0.88;;;16.20;88.50;;;;;;5100397;28;20138;-65
2022/05/23 03:48:44;;;;;;;4.10;0.80;;;16.20;88.70;;;;;;5095747;28;20020;-66
2022/05/23 03:51:14;;;;;;;3.00;0.57;;;16.20;89.00;;;;;;5093207;28;20036;-68
2022/05/23 03:53:40;;;;;;;2.28;0.50;;;16.20;89.30;;;;;;5097150;28;20070;-66
2022/05/23 03:56:07;;;;;;;6.32;0.55;;;16.20;89.20;;;;;;5096747;28;21409;-67
2022/05/23 03:58:59;;;;;;;1.75;0.90;;;16.20;89.10;;;;;;5100573;28;20470;-70
2022/05/23 04:01:28;;;;;;;0.50;0.50;;;16.20;89.10;;;;;;5086652;28;20040;-68
2022/05/23 04:04:06;;;;;;;4.13;0.80;;;16.20;89.20;;;;;;5097394;28;20090;-68
2022/05/23 04:06:35;;;;;;;9.38;1.50;;;16.20;89.30;;;;;;5063325;28;20032;-67
2022/05/23 04:09:02;;;;;;;6.55;0.50;;;16.20;89.30;;;;;;5097539;28;20047;-66
2022/05/23 04:11:28;;;;;;;12.05;1.15;;;16.20;89.30;;;;;;5095004;28;20034;-66
2022/05/23 04:13:55;;;;;;;4.50;0.60;;;16.30;89.30;;;;;;5100092;28;20482;-65
2022/05/23 04:16:23;;;;;;;6.10;4.50;;;16.30;88.80;;;;;;5079638;28;20050;-66
2022/05/23 04:18:50;;;;;;;11.77;8.20;;;16.20;89.40;;;;;;5095556;28;20058;-66
2022/05/23 04:21:16;;;;;;;20.45;15.02;;;16.20;89.40;;;;;;5095687;28;20039;-66
2022/05/23 04:23:42;;;;;;;16.05;12.38;;;16.20;89.10;;;;;;5099185;28;20038;-67
2022/05/23 04:26:14;;;;;;;7.25;6.05;;;16.20;88.80;;;;;;5096735;28;20471;-68
2022/05/23 04:28:41;;;;;;;4.97;3.13;;;16.10;88.70;;;;;;5097831;28;20103;-67
2022/05/23 04:31:09;;;;;;;4.63;2.20;;;16.20;88.90;;;;;;5098198;28;20118;-68
2022/05/23 04:36:26;;;;;;;2.45;1.02;;;16.10;88.40;;;;;;5095583;28;20080;-68
2022/05/23 04:38:55;;;;;;;2.90;1.10;;;16.10;88.20;;;;;;5093630;28;20312;-68
2022/05/23 04:41:23;;;;;;;9.55;1.98;;;16.10;88.10;;;;;;5086826;28;20548;-68
2022/05/23 04:43:50;;;;;;;6.65;1.33;;;16.10;88.00;;;;;;5096239;28;20092;-68
2022/05/23 04:46:16;;;;;;;9.38;7.03;;;16.10;88.00;;;;;;5097240;28;20024;-67
2022/05/23 04:51:53;;;;;;;7.07;5.47;;;16.00;87.70;;;;;;5091914;28;20090;-67
2022/05/23 04:54:20;;;;;;;7.10;3.53;;;16.00;87.60;;;;;;5094633;28;20017;-68
2022/05/23 04:57:06;;;;;;;2.85;1.92;;;16.00;87.60;;;;;;5094463;28;20078;-68
2022/05/23 04:59:34;;;;;;;1.80;1.55;;;16.00;87.60;;;;;;5094902;28;20500;-68
2022/05/23 05:02:02;;;;;;;1.23;1.00;;;16.00;87.60;;;;;;5093580;28;20016;-67
2022/05/23 05:04:29;;;;;;;2.08;1.10;;;16.00;87.50;;;;;;5094163;28;20025;-68
2022/05/23 05:06:56;;;;;;;2.25;0.98;;;15.90;87.50;;;;;;5088048;28;20016;-68
2022/05/23 05:09:22;;;;;;;2.25;1.30;;;15.90;87.50;;;;;;5096767;28;20420;-68
2022/05/23 05:11:49;;;;;;;2.15;0.82;;;15.90;87.50;;;;;;5094606;28;20024;-68
2022/05/23 05:14:15;;;;;;;2.28;0.88;;;15.90;87.50;;;;;;5097813;28;20024;-69
2022/05/23 05:17:21;;;;;;;2.55;0.77;;;15.90;87.50;;;;;;5096842;28;20471;-68
2022/05/23 05:20:29;;;;;;;1.65;0.80;;;16.00;87.50;;;;;;5094692;28;20019;-68
2022/05/23 05:23:35;;;;;;;3.78;1.13;;;15.90;87.30;;;;;;5097194;28;20492;-69
2022/05/23 05:26:41;;;;;;;3.47;0.52;;;16.00;87.30;;;;;;5097689;28;20047;-68
2022/05/23 05:29:47;;;;;;;2.00;0.45;;;16.00;87.50;;;;;;5098610;28;20028;-69
2022/05/23 05:32:39;;;;;;;2.22;0.30;;;16.00;87.50;;;;;;5098734;28;20099;-68
2022/05/23 05:35:46;;;;;;;2.13;1.27;;;16.00;87.60;;;;;;5097032;28;20107;-68
2022/05/23 05:39:01;;;;;;;0.60;0.40;;;16.00;87.60;;;;;;5097642;28;20020;-68
2022/05/23 05:42:09;;;;;;;0.25;0.25;;;16.00;87.60;;;;;;5095808;28;20045;-68
2022/05/23 05:45:15;;;;;;;0.45;0.43;;;16.10;87.80;;;;;;5099929;28;20569;-68
2022/05/23 05:48:21;;;;;;;2.55;0.70;;;16.10;87.70;;;;;;5097607;28;20063;-68
2022/05/23 05:51:27;;;;;;;0.75;0.22;;;16.00;87.70;;;;;;5097139;28;20544;-68
2022/05/23 05:54:33;;;;;;;6.00;0.80;;;16.00;87.80;;;;;;5098980;28;20035;-69
2022/05/23 05:57:39;;;;;;;2.33;1.23;;;16.10;88.00;;;;;;5097995;28;20032;-69
2022/05/23 06:00:45;;;;;;;4.32;0.70;;;16.10;88.10;;;;;;5097738;28;20077;-68
2022/05/23 06:03:52;;;;;;;1.45;0.70;;;16.10;88.20;;;;;;5098806;28;20024;-68
2022/05/23 06:13:47;;;;;;;2.15;0.60;;;16.10;88.70;;;;;;5100606;28;20058;-66
2022/05/23 06:16:53;;;;;;;1.55;0.50;;;16.10;89.10;;;;;;5099889;28;20026;-68
2022/05/23 06:20:01;;;;;;;0.55;0.55;;;16.10;89.40;;;;;;5082527;28;20584;-68
2022/05/23 06:23:07;;;;;;;4.60;0.60;;;16.10;89.60;;;;;;5098108;28;20026;-69
2022/05/23 06:26:14;;;;;;;2.50;0.73;;;16.20;89.60;;;;;;5098531;28;20051;-69
2022/05/23 06:29:20;;;;;;;0.70;0.60;;;16.20;89.40;;;;;;5100409;28;20073;-69
2022/05/23 06:32:26;;;;;;;3.03;0.77;;;16.20;89.40;;;;;;5083651;28;20394;-69
2022/05/23 06:35:32;;;;;;;1.25;0.30;;;16.20;89.40;;;;;;5095614;28;20028;-69
2022/05/23 06:38:38;;;;;;;4.00;0.50;;;16.20;89.50;;;;;;5100555;28;20474;-68
2022/05/23 06:41:44;;;;;;;5.22;0.65;;;16.20;89.50;;;;;;5097245;28;20028;-67
2022/05/23 06:44:50;;;;;;;3.03;0.98;;;16.20;89.50;;;;;;5099675;28;20109;-66
2022/05/23 06:47:57;;;;;;;4.50;0.93;;;16.20;89.60;;;;;;5097649;28;20031;-67
2022/05/23 06:51:09;;;;;;;3.50;0.60;;;16.20;90.00;;;;;;5101353;28;20114;-67
2022/05/23 06:54:15;;;;;;;2.22;0.73;;;16.30;90.10;;;;;;5099420;28;20024;-66
2022/05/23 06:57:21;;;;;;;1.25;1.15;;;16.30;90.00;;;;;;5098703;28;20363;-66
2022/05/23 07:00:27;;;;;;;8.73;0.95;;;16.30;90.00;;;;;;5097509;28;20498;-67
2022/05/23 07:03:33;;;;;;;2.65;0.70;;;16.30;90.10;;;;;;5087006;28;20035;-66
2022/05/23 07:13:28;;;;;;;2.40;1.35;;;16.40;90.20;;;;;;5099234;28;20080;-69
2022/05/23 07:16:35;;;;;;;3.72;1.00;;;16.40;90.20;;;;;;5097417;28;20103;-69
2022/05/23 07:19:41;;;;;;;4.80;1.35;;;16.50;90.20;;;;;;5097658;28;20015;-69
2022/05/23 07:22:47;;;;;;;5.43;1.60;;;16.50;90.20;;;;;;5095790;28;20463;-69
2022/05/23 07:25:53;;;;;;;2.33;1.35;;;16.50;90.30;;;;;;5098980;28;20034;-68
2022/05/23 07:28:59;;;;;;;10.00;1.75;;;16.60;90.30;;;;;;5099387;28;20020;-68
2022/05/23 07:32:05;;;;;;;5.05;1.65;;;16.60;90.30;;;;;;5094771;28;20417;-68
2022/05/23 07:35:11;;;;;;;8.20;2.30;;;16.60;90.40;;;;;;5096469;28;20028;-68
2022/05/23 07:38:17;;;;;;;7.95;2.00;;;16.60;90.40;;;;;;5077436;28;20035;-68
2022/05/23 07:41:23;;;;;;;9.65;1.98;;;16.70;90.70;;;;;;5098054;28;20032;-68
2022/05/23 07:44:29;;;;;;;8.18;1.98;;;16.60;90.40;;;;;;5095868;28;20466;-68
2022/05/23 07:47:35;;;;;;;2.60;2.10;;;16.70;90.40;;;;;;5096555;28;20486;-68
2022/05/23 07:50:45;;;;;;;7.70;1.77;;;16.70;90.40;;;;;;5096897;28;20024;-68
2022/05/23 08:00:40;;;;;;;10.18;1.52;;;16.80;90.90;;;;;;5094673;28;20035;-68
2022/05/23 08:03:48;;;;;;;7.40;1.83;;;16.90;90.60;;;;;;5097154;28;20076;-68
2022/05/23 08:06:55;;;;;;;3.08;1.10;;;16.90;90.60;;;;;;5096750;28;20050;-68
2022/05/23 08:10:01;;;;;;;4.40;1.27;;;16.90;90.50;;;;;;5094234;28;20031;-68
2022/05/23 08:13:09;;;;;;;3.20;1.35;;;16.90;90.50;;;;;;5094551;28;20024;-68
2022/05/23 08:16:15;;;;;;;1.40;0.88;;;16.90;90.50;;;;;;5096462;28;20024;-68
2022/05/23 08:19:21;;;;;;;2.75;1.45;;;17.00;90.40;;;;;;5095040;28;20016;-68
2022/05/23 08:22:27;;;;;;;4.55;1.95;;;17.00;90.40;;;;;;5098913;28;20390;-68
2022/05/23 08:25:33;;;;;;;6.15;2.30;;;17.00;90.30;;;;;;5094819;28;20031;-68
2022/05/23 08:28:39;;;;;;;2.42;2.22;;;17.00;90.30;;;;;;5095816;28;20534;-68
2022/05/23 08:31:45;;;;;;;4.28;2.55;;;17.00;90.20;;;;;;5097156;28;20027;-68
2022/05/23 08:34:52;;;;;;;8.70;6.75;;;17.10;90.20;;;;;;5097310;28;20110;-68
2022/05/23 08:37:59;;;;;;;9.70;7.60;;;17.10;90.20;;;;;;5095634;28;20024;-68
2022/05/23 08:41:24;;;;;;;12.73;8.85;;;17.20;90.20;;;;;;5097636;28;20099;-68
2022/05/23 08:44:12;;;;;;;10.52;9.25;;;17.30;90.30;;;;;;5091762;28;20051;-67
2022/05/23 08:46:56;;;;;;;11.75;10.55;;;17.30;90.50;;;;;;5095554;28;20016;-67
2022/05/23 08:50:05;;;;;;;15.35;9.55;;;17.40;90.60;;;;;;5093733;28;20047;-67
2022/05/23 08:52:54;;;;;;;7.43;6.72;;;17.40;90.60;;;;;;5092888;28;20024;-68
2022/05/23 08:55:53;;;;;;;8.15;5.25;;;17.50;90.60;;;;;;5096510;28;20529;-68
2022/05/23 08:58:59;;;;;;;11.68;5.30;;;17.60;90.70;;;;;;5101280;28;20038;-67
2022/05/23 09:02:05;;;;;;;10.57;5.43;;;17.60;90.70;;;;;;5097576;28;20110;-67
2022/05/23 09:04:57;;;;;;;12.35;4.22;;;17.60;90.60;;;;;;5061574;28;20067;-68
2022/05/23 09:08:04;;;;;;;7.43;4.60;;;17.70;90.60;;;;;;5097533;28;20030;-67
2022/05/23 09:10:49;;;;;;;3.90;2.03;;;17.80;90.50;;;;;;5094419;28;20043;-68
2022/05/23 09:13:55;;;;;;;4.35;2.30;;;17.80;90.30;;;;;;5098145;28;20024;-67
2022/05/23 09:17:01;;;;;;;5.35;2.08;;;17.90;90.10;;;;;;5098869;28;20020;-68
2022/05/23 09:19:52;;;;;;;2.53;1.70;;;17.90;90.00;;;;;;5097342;28;20051;-67
2022/05/23 09:22:58;;;;;;;5.35;1.23;;;18.00;89.50;;;;;;5098953;28;20016;-68
2022/05/23 09:26:04;;;;;;;3.00;1.00;;;18.00;89.10;;;;;;5099453;28;20461;-67
2022/05/23 09:28:54;;;;;;;3.72;1.30;;;18.10;88.90;;;;;;5098831;28;20556;-67
2022/05/23 09:31:46;;;;;;;4.28;1.15;;;18.10;88.40;;;;;;5096365;28;20376;-67
2022/05/23 09:34:51;;;;;;;6.03;1.60;;;18.10;87.80;;;;;;5098077;28;20032;-67
2022/05/23 09:38:00;;;;;;;4.13;1.08;;;18.20;87.20;;;;;;5098042;28;20392;-68
2022/05/23 09:41:07;;;;;;;4.03;1.30;;;18.20;86.70;;;;;;5098029;28;20023;-68
2022/05/23 09:47:50;;;;;;;2.67;0.93;;;18.30;85.40;;;;;;5097742;28;20054;-68
2022/05/23 09:51:14;;;;;;;4.95;1.65;;;18.40;84.50;;;;;;5096313;28;20501;-67
2022/05/23 09:54:23;;;;;;;2.70;0.88;;;18.50;84.10;;;;;;5099407;28;20387;-67
2022/05/23 09:57:39;;;;;;;2.72;1.00;;;18.50;83.90;;;;;;5095581;28;20028;-67
2022/05/23 10:00:51;;;;;;;4.60;1.05;;;18.60;83.30;;;;;;5098419;28;20028;-67
2022/05/23 10:04:06;;;;;;;10.45;1.58;;;18.70;82.70;;;;;;5095975;28;20425;-67
2022/05/23 10:07:12;;;;;;;4.60;0.63;;;18.70;82.30;;;;;;5098467;28;20054;-69
2022/05/23 10:10:18;;;;;;;5.10;2.78;;;18.80;82.00;;;;;;5095829;28;20067;-68
2022/05/23 10:13:39;;;;;;;2.45;1.05;;;18.80;81.50;;;;;;5099666;28;20031;-68
2022/05/23 10:17:06;;;;;;;1.88;0.65;;;18.90;81.30;;;;;;5096150;28;20020;-68
2022/05/23 10:19:54;;;;;;;;;;;18.90;81.00;;;;;;5094728;28;20063;-68
2022/05/23 10:23:00;;;;;;;4.05;0.70;;;19.00;81.00;;;;;;5097422;28;19912;-68
2022/05/23 10:26:04;;;;;;;4.80;0.63;;;19.00;80.60;;;;;;5095042;28;20036;-69
2022/05/23 10:28:44;;;;;;;4.70;0.75;;;19.10;80.30;;;;;;5096493;28;20106;-68
2022/05/23 10:31:39;;;;;;;2.08;0.60;;;19.10;80.20;;;;;;5098352;28;20478;-69
2022/05/23 10:34:51;;;;;;;5.18;0.77;;;19.20;80.20;;;;;;5095767;28;20027;-68
2022/05/23 10:44:28;;;;;;;4.00;1.13;;;19.40;79.60;;;;;;5095008;28;20055;-69
2022/05/23 10:47:38;;;;;;;6.55;0.90;;;19.40;79.10;;;;;;5095338;28;20031;-68
2022/05/23 10:50:49;;;;;;;2.30;0.50;;;19.40;78.70;;;;;;5092867;28;20139;-68
2022/05/23 10:53:28;;;;;;;0.98;0.63;;;19.40;78.30;;;;;;5094282;28;20111;-68
2022/05/23 10:56:10;;;;;;;1.23;0.43;;;19.40;78.00;;;;;;5092590;28;20043;-67
2022/05/23 10:59:18;;;;;;;2.50;0.47;;;19.40;77.80;;;;;;5094903;28;20023;-68
2022/05/23 11:02:14;;;;;;;5.55;1.00;;;19.40;77.70;;;;;;5093649;28;20133;-68
2022/05/23 11:05:02;;;;;;;1.00;0.65;;;19.40;78.30;;;;;;5091854;28;20038;-67
2022/05/23 11:07:47;;;;;;;3.35;0.95;;;19.40;77.40;;;;;;5093743;28;20020;-68
2022/05/23 11:10:29;;;;;;;2.03;0.60;;;19.40;77.30;;;;;;5099318;28;20077;-68
2022/05/23 11:13:14;;;;;;;4.03;0.98;;;19.50;77.30;;;;;;5092337;28;20023;-68
2022/05/23 11:16:34;;;;;;;1.08;0.93;;;19.50;77.10;;;;;;5094938;28;20027;-68
2022/05/23 11:19:52;;;;;;;9.43;1.27;;;19.70;77.10;;;;;;5095773;28;20032;-68
2022/05/23 11:22:58;;;;;;;2.03;0.50;;;19.70;76.90;;;;;;5093218;28;20744;-68
2022/05/23 11:26:13;;;;;;;4.45;0.45;;;19.80;76.50;;;;;;5095898;28;20034;-67
2022/05/23 11:36:09;;;;;;;5.40;1.02;;;20.00;75.40;;;;;;5100390;28;20054;-67
2022/05/23 11:39:15;;;;;;;4.88;0.70;;;20.10;75.20;;;;;;5078838;28;20112;-67
2022/05/23 11:42:21;;;;;;;5.68;0.95;;;20.20;74.90;;;;;;5094416;28;20121;-68
2022/05/23 11:44:51;;;;;;;1.92;1.35;;;20.20;74.60;;;;;;5092404;28;20047;-67
2022/05/23 11:48:05;;;;;;;1.60;0.60;;;20.30;74.50;;;;;;5094555;28;20204;-68
2022/05/23 11:51:12;;;;;;;6.95;1.25;;;20.30;74.30;;;;;;5091955;28;20043;-68
2022/05/23 11:53:58;;;;;;;3.53;0.65;;;20.40;74.00;;;;;;5095781;28;20471;-68
2022/05/23 11:57:00;;;;;;;2.97;0.60;;;20.40;73.70;;;;;;5095956;28;20163;-68
2022/05/23 11:59:26;;;;;;;3.40;0.57;;;20.50;73.40;;;;;;5092903;28;20486;-68
2022/05/23 12:02:08;;;;;;;1.70;0.35;;;20.40;72.80;;;;;;5096983;28;20039;-68
2022/05/23 12:04:51;;;;;;;1.45;0.68;;;20.50;72.70;;;;;;5074703;28;20077;-68
2022/05/23 12:07:39;;;;;;;2.75;0.52;;;20.50;72.50;;;;;;5098065;28;20022;-67
2022/05/23 12:10:25;;;;;;;3.40;0.50;;;20.50;72.40;;;;;;5098033;28;20036;-67
2022/05/23 12:12:51;;;;;;;;;;;20.60;72.40;;;;;;5078555;28;20389;-67
2022/05/23 12:15:46;;;;;;;3.85;0.70;;;20.60;72.40;;;;;;5098776;28;20339;-67
2022/05/23 12:18:21;;;;;;;3.45;0.65;;;20.60;72.00;;;;;;5097893;28;20387;-67
2022/05/23 12:21:27;;;;;;;2.70;0.80;;;20.60;71.80;;;;;;5097526;28;20020;-67
2022/05/23 12:24:51;;;;;;;2.63;0.98;;;20.60;71.70;;;;;;5096776;28;20039;-68
2022/05/23 12:27:44;;;;;;;2.20;0.90;;;20.60;71.90;;;;;;5099030;28;20103;-67
2022/05/23 12:30:20;;;;;;;1.75;0.90;;;20.60;71.80;;;;;;5099730;28;20124;-70
2022/05/23 12:33:41;;;;;;;1.70;0.95;;;20.60;71.70;;;;;;5100913;28;20053;-68
2022/05/23 12:36:47;;;;;;;1.10;0.50;;;20.70;71.70;;;;;;5096882;28;20032;-68
2022/05/23 12:39:39;;;;;;;2.53;1.00;;;20.70;71.50;;;;;;5099098;28;20027;-68
2022/05/23 12:42:30;;;;;;;1.48;0.68;;;20.70;71.40;;;;;;5096849;28;20145;-68
2022/05/23 12:45:30;;;;;;;3.15;1.38;;;20.70;71.30;;;;;;5099559;28;20036;-68
2022/05/23 12:48:18;;;;;;;8.98;1.67;;;20.70;71.30;;;;;;5096321;28;20034;-69
2022/05/23 12:54:36;;;;;;;5.68;1.30;;;20.70;71.80;;;;;;5095373;28;20448;-68
2022/05/23 12:57:55;;;;;;;6.75;1.05;;;20.70;71.40;;;;;;5095946;28;20119;-68
2022/05/23 13:00:34;;;;;;;2.25;0.70;;;20.80;71.30;;;;;;5024183;28;20042;-67
2022/05/23 13:03:37;;;;;;;2.08;0.80;;;20.80;71.10;;;;;;5096503;28;20031;-67
2022/05/23 13:06:25;;;;;;;2.33;0.82;;;20.80;71.00;;;;;;5094923;28;20131;-68
2022/05/23 13:09:11;;;;;;;0.88;0.40;;;20.80;70.90;;;;;;5099482;28;20019;-68
2022/05/23 13:11:46;;;;;;;2.30;0.90;;;20.80;70.80;;;;;;5096409;28;20034;-69
2022/05/23 13:14:13;;;;;;;1.10;0.63;;;20.80;70.80;;;;;;5079746;28;20070;-68
2022/05/23 13:16:50;;;;;;;4.25;0.98;;;20.70;70.70;;;;;;5098839;28;20533;-67
2022/05/23 13:22:10;;;;;;;3.00;0.40;;;20.70;70.80;;;;;;5095270;28;20400;-68
2022/05/23 13:24:55;;;;;;;2.47;0.60;;;20.70;70.80;;;;;;5100248;28;20471;-68
2022/05/23 13:27:28;;;;;;;1.20;0.52;;;20.80;70.90;;;;;;5098843;28;20493;-68
2022/05/23 13:30:18;;;;;;;2.58;1.10;;;20.70;70.70;;;;;;5097481;28;20506;-68
2022/05/23 13:32:58;;;;;;;2.95;0.95;;;20.70;70.80;;;;;;5097831;28;20027;-67
2022/05/23 13:35:32;;;;;;;4.00;0.60;;;20.70;70.90;;;;;;5098601;28;20028;-67
2022/05/23 13:38:29;;;;;;;3.97;0.70;;;20.70;71.00;;;;;;5098386;28;20546;-68
2022/05/23 13:40:59;;;;;;;8.60;1.38;;;20.70;71.00;;;;;;5097085;28;20028;-67
2022/05/23 13:43:31;;;;;;;7.20;0.77;;;20.70;71.20;;;;;;5095015;28;20044;-68
2022/05/23 13:46:12;;;;;;;1.70;0.90;;;20.60;71.20;;;;;;5096238;28;20098;-68
2022/05/23 13:48:42;;;;;;;5.82;0.82;;;20.60;72.20;;;;;;5098640;28;20547;-67
2022/05/23 13:51:27;;;;;;;11.65;1.20;;;20.60;72.00;;;;;;5101572;28;20031;-68
2022/05/23 13:54:17;;;;;;;9.38;1.42;;;20.60;72.10;;;;;;5098971;28;20060;-67
2022/05/23 13:56:48;;;;;;;3.92;0.80;;;20.60;72.10;;;;;;5054530;28;20020;-68
2022/05/23 13:59:21;;;;;;;7.25;0.63;;;20.60;72.20;;;;;;5097347;28;20051;-68
2022/05/23 14:01:57;;;;;;;3.28;0.60;;;20.60;72.50;;;;;;5095964;28;20024;-67
2022/05/23 14:04:28;;;;;;;9.38;0.82;;;20.60;72.90;;;;;;5097571;28;20491;-67
2022/05/23 14:06:59;;;;;;;2.67;0.75;;;20.60;73.20;;;;;;5097136;28;20111;-67
2022/05/23 14:10:10;;;;;;;1.23;0.65;;;20.60;73.20;;;;;;5097296;28;20031;-69
2022/05/23 14:12:39;;;;;;;8.45;1.10;;;20.50;73.10;;;;;;5096162;28;20024;-69
2022/05/23 14:15:11;;;;;;;18.77;2.15;;;20.40;73.40;;;;;;5097416;28;20020;-71
2022/05/23 14:17:47;;;;;;;10.25;1.42;;;20.40;73.90;;;;;;5094677;28;20884;-68
2022/05/23 14:20:27;;;;;;;5.68;1.08;;;20.40;74.20;;;;;;5097639;28;20046;-68
2022/05/23 14:23:03;;;;;;;1.63;0.50;;;20.40;73.90;;;;;;5097651;28;20089;-68
2022/05/23 14:25:38;;;;;;;10.45;2.42;;;20.40;74.30;;;;;;5099147;28;20462;-68
2022/05/23 14:28:20;;;;;;;4.50;1.17;;;20.40;74.10;;;;;;5092128;28;20103;-69
2022/05/23 14:30:58;;;;;;;3.28;1.40;;;20.30;74.80;;;;;;5097775;28;20036;-67
2022/05/23 14:33:34;;;;;;;3.20;0.80;;;20.30;75.20;;;;;;5098874;28;20076;-69
2022/05/23 14:36:14;;;;;;;3.72;1.52;;;20.30;75.40;;;;;;5096204;28;20383;-68
2022/05/23 14:38:46;;;;;;;7.35;1.25;;;20.30;75.30;;;;;;5098010;28;20023;-67
2022/05/23 14:41:26;;;;;;;24.88;2.30;;;20.20;75.40;;;;;;5097974;28;20111;-69
2022/05/23 14:44:22;;;;;;;12.82;1.90;;;20.20;75.90;;;;;;5099278;28;20039;-68
2022/05/23 14:47:06;;;;;;;8.13;3.35;;;20.20;76.20;;;;;;5100934;28;20032;-68
2022/05/23 14:49:36;;;;;;;4.10;1.33;;;20.10;76.00;;;;;;5094823;28;20031;-67
2022/05/23 14:52:45;;;;;;;4.70;1.20;;;20.10;76.10;;;;;;5099142;28;20039;-67
2022/05/23 14:55:18;;;;;;;6.30;1.42;;;20.00;76.30;;;;;;5088347;28;20589;-69
2022/05/23 15:00:51;;;;;;;3.65;0.90;;;19.90;76.80;;;;;;5099276;28;20038;-66
2022/05/23 15:03:27;;;;;;;6.05;1.05;;;19.90;76.90;;;;;;5099270;28;20041;-66
2022/05/23 15:05:56;;;;;;;4.82;1.00;;;19.90;77.20;;;;;;5097277;28;20023;-68
2022/05/23 15:08:24;;;;;;;8.85;1.50;;;19.90;77.20;;;;;;5098607;28;20030;-68
2022/05/23 15:10:55;;;;;;;3.20;1.10;;;19.80;77.30;;;;;;5096116;28;20097;-68
2022/05/23 15:13:22;;;;;;;3.60;1.27;;;19.80;77.30;;;;;;5098826;28;20491;-67
2022/05/23 15:15:49;;;;;;;12.20;1.58;;;19.80;77.30;;;;;;5080774;28;20065;-65
2022/05/23 15:18:17;;;;;;;6.70;1.20;;;19.80;77.40;;;;;;5096930;28;20035;-65
2022/05/23 15:20:44;;;;;;;2.90;0.85;;;19.70;77.40;;;;;;5080708;28;20073;-66
2022/05/23 15:23:11;;;;;;;5.15;1.17;;;19.70;77.50;;;;;;5098899;28;20107;-68
2022/05/23 15:25:38;;;;;;;10.63;1.65;;;19.70;77.70;;;;;;5097617;28;20023;-65